createdAt,value
2022-12-17T00:01:13.339Z,40.75
2022-12-17T00:04:02.904Z,51.85
2022-12-17T00:06:56.492Z,32.75
2022-12-17T00:09:50.083Z,31.80
2022-12-17T00:12:39.878Z,34.17
2022-12-17T00:15:29.560Z,31.58
2022-12-17T00:18:30.411Z,32.83
2022-12-17T00:21:22.539Z,36.47
2022-12-17T00:24:12.521Z,29.45
2022-12-17T00:27:01.680Z,34.13
2022-12-17T00:29:50.799Z,29.90
2022-12-17T00:32:40.000Z,32.35
2022-12-17T00:35:29.599Z,31.98
2022-12-17T00:38:18.741Z,33.30
2022-12-17T00:41:13.488Z,39.95
2022-12-17T00:44:02.542Z,32.17
2022-12-17T00:46:51.703Z,31.30
2022-12-17T00:49:41.193Z,30.75
2022-12-17T00:52:30.394Z,38.95
2022-12-17T00:55:19.495Z,33.92
2022-12-17T00:58:08.636Z,33.50
2022-12-17T01:00:58.136Z,33.95
2022-12-17T01:03:47.738Z,30.35
2022-12-17T01:06:37.236Z,37.53
2022-12-17T01:09:26.793Z,42.17
2022-12-17T01:12:16.310Z,36.40
2022-12-17T01:15:05.800Z,42.85
2022-12-17T01:17:56.259Z,36.33
2022-12-17T01:20:46.430Z,36.95
2022-12-17T01:23:36.304Z,37.85
2022-12-17T01:26:26.677Z,39.50
2022-12-17T01:29:15.747Z,36.90
2022-12-17T01:32:05.121Z,37.53
2022-12-17T01:34:54.253Z,40.20
2022-12-17T01:37:43.368Z,38.45
2022-12-17T01:40:32.819Z,36.75
2022-12-17T01:43:22.032Z,37.63
2022-12-17T01:46:12.075Z,37.53
2022-12-17T01:49:06.291Z,37.47
2022-12-17T01:51:57.167Z,31.23
2022-12-17T01:54:46.379Z,31.92
2022-12-17T01:57:36.285Z,37.33
2022-12-17T02:00:34.940Z,41.40
2022-12-17T02:03:25.212Z,42.80
2022-12-17T02:06:40.570Z,32.72
2022-12-17T02:10:00.764Z,38.25
2022-12-17T02:13:08.757Z,37.80
2022-12-17T02:16:17.137Z,31.35
2022-12-17T02:19:14.607Z,31.63
2022-12-17T02:22:07.168Z,32.28
2022-12-17T02:25:17.444Z,36.38
2022-12-17T02:28:07.089Z,32.90
2022-12-17T02:30:58.728Z,32.03
2022-12-17T02:33:48.550Z,34.60
2022-12-17T02:36:38.108Z,30.45
2022-12-17T02:39:27.598Z,41.97
2022-12-17T02:42:19.831Z,35.20
2022-12-17T02:45:09.385Z,40.78
2022-12-17T02:48:00.084Z,34.15
2022-12-17T02:50:49.538Z,32.78
2022-12-17T02:53:41.237Z,39.13
2022-12-17T02:56:30.850Z,31.38
2022-12-17T02:59:20.340Z,34.90
2022-12-17T03:02:09.904Z,31.35
2022-12-17T03:05:06.639Z,36.65
2022-12-17T03:08:04.591Z,33.78
2022-12-17T03:10:54.080Z,30.70
2022-12-17T03:13:51.100Z,33.95
2022-12-17T03:16:41.274Z,30.20
2022-12-17T03:19:31.843Z,37.40
2022-12-17T03:22:21.959Z,34.78
2022-12-17T03:25:10.970Z,34.83
2022-12-17T03:28:00.283Z,34.22
2022-12-17T03:30:49.500Z,34.38
2022-12-17T03:33:39.049Z,33.47
2022-12-17T03:36:28.738Z,32.90
2022-12-17T03:39:18.025Z,32.30
2022-12-17T03:42:07.599Z,32.60
2022-12-17T03:44:56.829Z,35.85
2022-12-17T03:47:45.928Z,29.92
2022-12-17T03:50:35.038Z,32.50
2022-12-17T03:53:26.369Z,36.17
2022-12-17T03:56:15.552Z,37.53
2022-12-17T03:59:04.703Z,34.35
2022-12-17T04:01:53.969Z,31.70
2022-12-17T04:04:43.234Z,32.67
2022-12-17T04:07:32.455Z,35.33
2022-12-17T04:10:21.549Z,39.50
2022-12-17T04:13:11.161Z,31.55
2022-12-17T04:16:00.760Z,38.33
2022-12-17T04:18:49.984Z,35.80
2022-12-17T04:21:39.107Z,31.02
2022-12-17T04:24:29.522Z,33.25
2022-12-17T04:27:19.032Z,40.25
2022-12-17T04:30:08.666Z,33.75
2022-12-17T04:32:58.069Z,33.50
2022-12-17T04:35:47.539Z,34.13
2022-12-17T04:38:37.058Z,37.15
2022-12-17T04:41:26.581Z,35.85
2022-12-17T04:44:16.086Z,37.72
2022-12-17T04:47:05.754Z,39.35
2022-12-17T04:49:55.246Z,36.20
2022-12-17T04:52:44.749Z,40.42
2022-12-17T04:55:34.198Z,36.78
2022-12-17T04:58:28.184Z,34.53
2022-12-17T05:01:18.214Z,38.42
2022-12-17T05:04:07.787Z,37.70
2022-12-17T05:06:57.178Z,37.72
2022-12-17T05:09:46.634Z,33.42
2022-12-17T05:12:36.116Z,36.78
2022-12-17T05:15:26.045Z,40.78
2022-12-17T05:18:15.518Z,33.75
2022-12-17T05:21:05.086Z,34.03
2022-12-17T05:23:54.516Z,33.92
2022-12-17T05:26:47.010Z,36.97
2022-12-17T05:29:36.458Z,32.35
2022-12-17T05:32:26.364Z,35.67
2022-12-17T05:35:15.752Z,38.03
2022-12-17T05:38:05.190Z,30.40
2022-12-17T05:40:54.806Z,33.08
2022-12-17T05:43:44.192Z,33.00
2022-12-17T05:46:33.686Z,28.90
2022-12-17T05:49:23.202Z,30.13
2022-12-17T05:52:12.598Z,29.33
2022-12-17T05:55:02.104Z,30.67
2022-12-17T05:57:56.233Z,32.80
2022-12-17T06:00:46.116Z,28.02
2022-12-17T06:03:35.868Z,32.15
2022-12-17T06:06:25.770Z,38.50
2022-12-17T06:09:15.207Z,40.47
2022-12-17T06:12:04.726Z,31.90
2022-12-17T06:14:54.110Z,36.42
2022-12-17T06:17:43.558Z,33.15
2022-12-17T06:20:33.245Z,29.63
2022-12-17T06:23:32.073Z,31.40
2022-12-17T06:26:21.527Z,27.95
2022-12-17T06:29:11.593Z,34.53
2022-12-17T06:32:00.882Z,37.53
2022-12-17T06:34:50.108Z,44.40
2022-12-17T06:37:39.198Z,36.92
2022-12-17T06:40:28.876Z,35.08
2022-12-17T06:43:18.855Z,34.28
2022-12-17T06:46:08.111Z,34.40
2022-12-17T06:48:57.181Z,34.00
2022-12-17T06:51:46.375Z,31.77
2022-12-17T06:54:35.528Z,29.25
2022-12-17T06:57:24.776Z,29.88
2022-12-17T07:00:13.976Z,29.58
2022-12-17T07:03:03.204Z,29.15
2022-12-17T07:05:52.308Z,27.10
2022-12-17T07:08:41.448Z,30.75
2022-12-17T07:11:30.648Z,29.33
2022-12-17T07:14:19.885Z,40.53
2022-12-17T07:17:08.969Z,38.10
2022-12-17T07:19:58.126Z,39.20
2022-12-17T07:22:47.229Z,30.83
2022-12-17T07:25:37.821Z,32.50
2022-12-17T07:28:29.629Z,30.50
2022-12-17T07:31:19.281Z,29.23
2022-12-17T07:34:08.515Z,29.23
2022-12-17T07:36:57.716Z,30.98
2022-12-17T07:39:47.178Z,27.27
2022-12-17T07:42:36.669Z,29.98
2022-12-17T07:45:26.719Z,30.95
2022-12-17T07:48:16.679Z,29.70
2022-12-17T07:51:10.125Z,30.75
2022-12-17T07:53:59.724Z,30.08
2022-12-17T07:56:49.188Z,28.50
2022-12-17T07:59:39.839Z,33.30
2022-12-17T08:02:31.598Z,29.65
2022-12-17T08:05:21.089Z,31.95
2022-12-17T08:08:10.615Z,34.47
2022-12-17T08:11:00.039Z,34.85
2022-12-17T08:13:49.441Z,35.35
2022-12-17T08:16:39.055Z,31.05
2022-12-17T08:19:28.667Z,36.20
2022-12-17T08:22:18.168Z,32.17
2022-12-17T08:25:07.610Z,30.60
2022-12-17T08:27:57.296Z,34.88
2022-12-17T08:30:46.948Z,33.08
2022-12-17T08:33:36.757Z,31.63
2022-12-17T08:36:26.670Z,28.98
2022-12-17T08:39:16.662Z,32.28
2022-12-17T08:42:05.927Z,36.45
2022-12-17T08:44:55.079Z,31.02
2022-12-17T08:47:46.271Z,34.22
2022-12-17T08:50:35.416Z,30.77
2022-12-17T08:53:27.093Z,35.78
2022-12-17T08:56:17.609Z,34.25
2022-12-17T08:59:06.798Z,33.85
2022-12-17T09:01:56.032Z,33.95
2022-12-17T09:04:45.275Z,40.13
2022-12-17T09:07:34.474Z,29.25
2022-12-17T09:10:23.641Z,34.28
2022-12-17T09:13:12.747Z,35.05
2022-12-17T09:16:01.917Z,31.15
2022-12-17T09:18:51.041Z,29.67
2022-12-17T09:21:40.128Z,27.00
2022-12-17T09:24:29.639Z,34.08
2022-12-17T09:27:18.904Z,32.65
2022-12-17T09:30:08.080Z,31.13
2022-12-17T09:32:57.284Z,26.35
2022-12-17T09:35:46.373Z,25.35
2022-12-17T09:38:36.500Z,28.08
2022-12-17T09:41:51.563Z,26.67
2022-12-17T09:45:06.094Z,23.17
2022-12-17T09:48:33.306Z,26.63
2022-12-17T09:51:22.690Z,27.13
2022-12-17T09:54:13.124Z,32.65
2022-12-17T09:57:03.880Z,29.15
2022-12-17T09:59:57.321Z,33.55
2022-12-17T10:02:53.023Z,30.45
2022-12-17T10:05:48.547Z,25.15
2022-12-17T10:08:43.110Z,29.23
2022-12-17T10:11:44.728Z,26.90
2022-12-17T10:14:44.364Z,27.40
2022-12-17T10:17:42.645Z,26.52
2022-12-17T10:20:48.659Z,33.30
2022-12-17T10:23:57.296Z,24.73
2022-12-17T10:26:50.209Z,25.20
2022-12-17T10:29:48.451Z,22.77
2022-12-17T10:32:47.094Z,22.60
2022-12-17T10:35:58.001Z,24.77
2022-12-17T10:38:50.038Z,26.50
2022-12-17T10:41:53.025Z,25.48
2022-12-17T10:44:55.395Z,24.25
2022-12-17T10:47:47.122Z,21.60
2022-12-17T10:50:45.008Z,25.23
2022-12-17T10:56:47.991Z,22.95
2022-12-17T10:59:57.370Z,22.38
2022-12-17T11:02:52.012Z,23.58
2022-12-17T11:05:54.975Z,24.92
2022-12-17T11:08:49.033Z,38.65
2022-12-17T11:11:38.745Z,25.08
2022-12-17T11:14:31.174Z,29.85
2022-12-17T11:17:25.211Z,32.22
2022-12-17T11:20:36.929Z,35.67
2022-12-17T11:23:26.734Z,32.83
2022-12-17T11:26:31.627Z,30.40
2022-12-17T11:29:21.718Z,41.17
2022-12-17T11:32:34.936Z,33.75
2022-12-17T11:35:51.976Z,29.05
2022-12-17T11:38:57.716Z,34.75
2022-12-17T11:42:25.150Z,25.55
2022-12-17T11:48:27.325Z,25.70
2022-12-17T11:51:28.609Z,35.67
2022-12-17T11:54:45.725Z,26.48
2022-12-17T11:58:03.865Z,42.05
2022-12-17T12:01:03.613Z,31.35
2022-12-17T12:04:24.351Z,35.00
2022-12-17T12:07:38.927Z,37.42
2022-12-17T12:10:45.640Z,33.78
2022-12-17T12:13:54.428Z,36.88
2022-12-17T12:16:56.959Z,38.45
2022-12-17T12:20:06.536Z,39.72
2022-12-17T12:23:15.852Z,39.65
2022-12-17T12:26:34.992Z,39.90
2022-12-17T12:29:48.900Z,38.88
2022-12-17T12:32:56.844Z,38.30
2022-12-17T12:35:50.042Z,36.78
2022-12-17T12:38:49.150Z,36.47
2022-12-17T12:42:13.674Z,35.00
2022-12-17T12:45:42.270Z,34.75
2022-12-17T12:49:10.208Z,40.72
2022-12-17T12:52:01.192Z,41.35
2022-12-17T12:55:12.730Z,37.13
2022-12-17T12:58:21.114Z,40.45
2022-12-17T13:01:16.254Z,39.30
2022-12-17T13:04:15.460Z,36.03
2022-12-17T13:06:56.284Z,28.85
2022-12-17T13:09:39.149Z,29.92
2022-12-17T13:12:26.592Z,26.63
2022-12-17T13:15:19.186Z,24.77
2022-12-17T13:18:08.824Z,24.77
2022-12-17T13:20:38.932Z,21.27
2022-12-17T13:23:28.380Z,24.98
2022-12-17T13:26:20.360Z,19.05
2022-12-17T13:29:13.286Z,14.18
2022-12-17T13:32:00.414Z,18.80
2022-12-17T13:35:10.671Z,13.07
2022-12-17T13:38:12.232Z,14.35
2022-12-17T13:41:15.014Z,17.75
2022-12-17T13:43:55.185Z,16.33
2022-12-17T13:46:48.275Z,15.30
2022-12-17T13:49:26.177Z,17.08
2022-12-17T13:52:18.058Z,20.33
2022-12-17T13:54:47.655Z,16.85
2022-12-17T13:57:19.963Z,18.08
2022-12-17T14:00:00.865Z,16.73
2022-12-17T14:02:40.903Z,16.73
2022-12-17T14:05:28.602Z,18.63
2022-12-17T14:08:03.021Z,21.42
2022-12-17T14:10:33.181Z,18.90
2022-12-17T14:13:10.327Z,16.92
2022-12-17T14:15:40.054Z,22.42
2022-12-17T14:18:16.725Z,23.80
2022-12-17T14:20:46.975Z,21.00
2022-12-17T14:23:36.145Z,23.48
2022-12-17T14:26:05.842Z,21.05
2022-12-17T14:28:50.436Z,26.08
2022-12-17T14:31:29.995Z,27.98
2022-12-17T14:34:12.668Z,21.17
2022-12-17T14:36:45.568Z,23.88
2022-12-17T14:39:23.252Z,30.27
2022-12-17T14:42:13.134Z,23.13
2022-12-17T14:44:59.914Z,29.13
2022-12-17T14:47:39.652Z,21.90
2022-12-17T14:50:39.101Z,20.90
2022-12-17T14:53:29.293Z,23.38
2022-12-17T14:56:00.664Z,21.65
2022-12-17T14:58:30.793Z,23.27
2022-12-17T15:01:10.715Z,27.20
2022-12-17T15:03:48.486Z,24.77
2022-12-17T15:06:20.756Z,27.45
2022-12-17T15:08:52.146Z,24.88
2022-12-17T15:11:24.376Z,23.77
2022-12-17T15:13:56.627Z,23.77
2022-12-17T15:16:26.459Z,29.23
2022-12-17T15:18:56.150Z,29.48
2022-12-17T15:21:27.570Z,34.28
2022-12-17T15:23:57.250Z,21.45
2022-12-17T15:26:26.927Z,26.02
2022-12-17T15:28:56.521Z,21.40
2022-12-17T15:31:29.470Z,27.70
2022-12-17T15:34:01.623Z,28.02
2022-12-17T15:36:33.473Z,23.35
2022-12-17T15:39:07.926Z,28.35
2022-12-17T15:41:57.272Z,25.75
2022-12-17T15:44:29.914Z,25.83
2022-12-17T15:47:02.040Z,32.25
2022-12-17T15:49:31.807Z,29.08
2022-12-17T15:52:01.364Z,31.63
2022-12-17T15:54:30.993Z,26.13
2022-12-17T15:57:00.609Z,36.88
2022-12-17T15:59:30.165Z,25.33
2022-12-17T16:01:59.859Z,28.15
2022-12-17T16:04:29.831Z,27.58
2022-12-17T16:06:59.512Z,30.33
2022-12-17T16:09:29.150Z,35.28
2022-12-17T16:11:59.250Z,27.77
2022-12-17T16:14:28.877Z,25.00
2022-12-17T16:16:58.423Z,27.80
2022-12-17T16:19:28.564Z,24.77
2022-12-17T16:21:58.449Z,31.30
2022-12-17T16:24:28.301Z,31.83
2022-12-17T16:27:04.052Z,36.72
2022-12-17T16:29:34.441Z,31.85
2022-12-17T16:32:04.362Z,30.50
2022-12-17T16:34:34.452Z,27.70
2022-12-17T16:37:04.632Z,30.90
2022-12-17T16:39:34.971Z,29.40
2022-12-17T16:42:04.948Z,32.55
2022-12-17T16:44:35.066Z,32.15
2022-12-17T16:47:05.666Z,32.95
2022-12-17T16:49:38.848Z,35.97
2022-12-17T16:52:11.820Z,28.38
2022-12-17T16:54:41.620Z,31.65
2022-12-17T16:57:12.440Z,30.13
2022-12-17T16:59:42.486Z,39.40
2022-12-17T17:02:17.108Z,31.67
2022-12-17T17:04:47.147Z,33.65
2022-12-17T17:07:17.084Z,30.73
2022-12-17T17:09:47.337Z,29.08
2022-12-17T17:12:17.324Z,27.80
2022-12-17T17:14:47.174Z,30.75
2022-12-17T17:17:16.760Z,34.65
2022-12-17T17:19:46.364Z,33.53
2022-12-17T17:22:16.044Z,30.60
2022-12-17T17:24:46.456Z,35.70
2022-12-17T17:27:16.121Z,36.47
2022-12-17T17:29:45.665Z,26.77
2022-12-17T17:32:15.235Z,30.95
2022-12-17T17:34:44.913Z,28.52
2022-12-17T17:37:15.210Z,29.42
2022-12-17T17:39:44.855Z,36.03
2022-12-17T17:42:14.485Z,28.73
2022-12-17T17:44:44.054Z,37.97
2022-12-17T17:47:14.526Z,33.70
2022-12-17T17:49:44.373Z,34.97
2022-12-17T17:52:13.929Z,34.03
2022-12-17T17:54:46.742Z,31.13
2022-12-17T17:57:16.446Z,33.17
2022-12-17T17:59:50.039Z,38.78
2022-12-17T18:02:20.743Z,31.63
2022-12-17T18:04:51.505Z,33.25
2022-12-17T18:07:25.771Z,36.35
2022-12-17T18:09:56.249Z,32.33
2022-12-17T18:12:48.562Z,38.47
2022-12-17T18:15:18.764Z,31.60
2022-12-17T18:17:52.540Z,31.58
2022-12-17T18:20:22.505Z,48.58
2022-12-17T18:22:52.488Z,44.95
2022-12-17T18:25:23.055Z,46.40
2022-12-17T18:27:55.481Z,37.60
2022-12-17T18:30:25.326Z,38.60
2022-12-17T18:32:56.638Z,42.50
2022-12-17T18:35:27.721Z,39.13
2022-12-17T18:37:57.554Z,40.88
2022-12-17T18:40:32.919Z,41.03
2022-12-17T18:43:22.806Z,44.58
2022-12-17T18:45:54.556Z,33.83
2022-12-17T18:48:24.933Z,40.53
2022-12-17T18:50:55.415Z,35.55
2022-12-17T18:53:27.446Z,38.78
2022-12-17T18:55:56.936Z,36.65
2022-12-17T18:58:26.458Z,45.40
2022-12-17T19:00:56.186Z,34.63
2022-12-17T19:03:25.874Z,35.83
2022-12-17T19:05:55.372Z,44.88
2022-12-17T19:08:25.145Z,39.22
2022-12-17T19:10:54.644Z,45.65
2022-12-17T19:13:24.168Z,42.17
2022-12-17T19:15:55.050Z,34.25
2022-12-17T19:18:30.654Z,37.38
2022-12-17T19:21:01.321Z,35.30
2022-12-17T19:23:34.376Z,45.95
2022-12-17T19:26:21.915Z,34.80
2022-12-17T19:28:53.768Z,50.35
2022-12-17T19:31:25.958Z,38.85
2022-12-17T19:34:00.555Z,35.08
2022-12-17T19:36:32.321Z,42.55
2022-12-17T19:39:05.818Z,36.95
2022-12-17T19:41:36.450Z,39.25
2022-12-17T19:44:08.886Z,40.35
2022-12-17T19:46:39.130Z,35.10
2022-12-17T19:49:10.052Z,50.83
2022-12-17T19:51:45.593Z,39.70
2022-12-17T19:54:19.351Z,43.97
2022-12-17T19:56:49.063Z,39.95
2022-12-17T19:59:18.653Z,38.55
2022-12-17T20:01:50.803Z,41.13
2022-12-17T20:04:20.489Z,37.22
2022-12-17T20:06:50.383Z,41.33
2022-12-17T20:09:19.996Z,40.67
2022-12-17T20:11:49.580Z,38.60
2022-12-17T20:14:22.977Z,41.13
2022-12-17T20:16:57.955Z,42.72
2022-12-17T20:19:33.906Z,44.67
2022-12-17T20:22:06.148Z,45.95
2022-12-17T20:24:38.862Z,48.00
2022-12-17T20:27:09.132Z,36.42
2022-12-17T20:29:39.094Z,38.55
2022-12-17T20:32:09.556Z,36.50
2022-12-17T20:34:39.425Z,41.22
2022-12-17T20:37:09.297Z,37.97
2022-12-17T20:39:39.289Z,32.80
2022-12-17T20:42:10.538Z,41.35
2022-12-17T20:44:41.195Z,43.15
2022-12-17T20:47:11.092Z,50.22
2022-12-17T20:49:40.954Z,37.78
2022-12-17T20:52:10.844Z,49.88
2022-12-17T20:54:41.414Z,38.60
2022-12-17T20:57:10.924Z,46.08
2022-12-17T20:59:40.470Z,46.38
2022-12-17T21:02:11.515Z,43.70
2022-12-17T21:04:41.397Z,46.38
2022-12-17T21:07:11.345Z,50.05
2022-12-17T21:09:41.248Z,51.85
2022-12-17T21:12:11.470Z,48.90
2022-12-17T21:14:41.290Z,44.65
2022-12-17T21:17:11.180Z,49.25
2022-12-17T21:19:41.109Z,54.75
2022-12-17T21:22:11.033Z,46.70
2022-12-17T21:24:41.248Z,48.83
2022-12-17T21:27:14.972Z,52.60
2022-12-17T21:29:45.174Z,55.20
2022-12-17T21:32:15.061Z,49.03
2022-12-17T21:34:45.006Z,46.60
2022-12-17T21:37:15.521Z,45.95
2022-12-17T21:39:45.537Z,39.83
2022-12-17T21:42:34.994Z,43.22
2022-12-17T21:45:04.863Z,42.63
2022-12-17T21:47:34.860Z,38.95
2022-12-17T21:50:05.545Z,40.63
2022-12-17T21:52:35.326Z,48.05
2022-12-17T21:55:05.018Z,48.30
2022-12-17T21:57:34.696Z,45.78
2022-12-17T22:00:04.293Z,45.22
2022-12-17T22:02:34.049Z,43.03
2022-12-17T22:05:04.816Z,46.42
2022-12-17T22:07:40.978Z,50.08
2022-12-17T22:10:36.545Z,49.83
2022-12-17T22:13:25.246Z,50.38
2022-12-17T22:15:56.377Z,43.15
2022-12-17T22:18:26.017Z,48.05
2022-12-17T22:21:03.454Z,36.97
2022-12-17T22:23:33.402Z,39.07
2022-12-17T22:26:03.694Z,50.55
2022-12-17T22:28:33.500Z,44.20
2022-12-17T22:31:27.071Z,45.58
2022-12-17T22:34:41.179Z,46.33
2022-12-17T22:39:23.711Z,42.83
2022-12-17T22:44:38.221Z,45.22
2022-12-17T22:44:39.040Z,44.30
2022-12-17T22:45:39.797Z,43.88
2022-12-17T22:48:12.365Z,44.90
2022-12-17T22:51:00.158Z,47.22
2022-12-17T22:53:33.096Z,40.17
2022-12-17T22:56:18.549Z,44.20
2022-12-17T22:58:59.861Z,37.35
2022-12-17T23:01:29.608Z,47.85
2022-12-17T23:04:01.189Z,41.17
2022-12-17T23:06:30.803Z,39.75
2022-12-17T23:09:00.782Z,47.25
2022-12-17T23:11:32.987Z,46.05
2022-12-17T23:14:02.552Z,44.42
2022-12-17T23:16:32.268Z,57.45
2022-12-17T23:19:03.676Z,48.47
2022-12-17T23:21:33.214Z,58.38
2022-12-17T23:24:02.926Z,52.13
2022-12-17T23:26:35.287Z,61.15
2022-12-17T23:29:07.889Z,45.40
2022-12-17T23:31:40.135Z,47.58
2022-12-17T23:34:10.847Z,49.38
2022-12-17T23:36:40.504Z,43.10
2022-12-17T23:39:10.204Z,45.28
2022-12-17T23:41:39.812Z,47.88
2022-12-17T23:44:09.459Z,51.40
2022-12-17T23:46:39.008Z,62.35
2022-12-17T23:49:08.802Z,47.90
2022-12-17T23:51:39.007Z,46.55
2022-12-17T23:54:08.863Z,52.08
2022-12-17T23:56:38.642Z,49.88
2022-12-17T23:59:08.284Z,68.50
